createdAt,value
2022-09-16T00:00:46.406Z,96370.97
2022-09-16T00:03:13.245Z,96358.44
2022-09-16T00:05:47.135Z,96370.50
2022-09-16T00:08:13.918Z,96361.09
2022-09-16T00:10:40.548Z,96377.88
2022-09-16T00:13:07.321Z,96342.47
2022-09-16T00:15:33.888Z,96367.88
2022-09-16T00:18:00.583Z,96354.66
2022-09-16T00:20:27.228Z,96344.66
2022-09-16T00:22:54.272Z,96369.53
2022-09-16T00:25:20.874Z,96370.13
2022-09-16T00:27:48.589Z,96352.72
2022-09-16T00:30:15.426Z,96353.84
2022-09-16T00:32:42.345Z,96336.97
2022-09-16T00:35:09.350Z,96361.84
2022-09-16T00:37:35.953Z,96347.06
2022-09-16T00:40:02.836Z,96362.81
2022-09-16T00:42:29.463Z,96345.66
2022-09-16T00:45:01.119Z,96358.84
2022-09-16T00:47:38.161Z,96353.75
2022-09-16T00:50:13.981Z,96359.19
2022-09-16T00:52:40.529Z,96363.16
2022-09-16T00:55:09.026Z,96364.13
2022-09-16T00:57:35.642Z,96353.66
2022-09-16T01:00:02.474Z,96347.50
2022-09-16T01:02:29.115Z,96348.78
2022-09-16T01:04:57.646Z,96357.50
2022-09-16T01:07:29.688Z,96372.09
2022-09-16T01:09:56.314Z,96350.34
2022-09-16T01:12:23.067Z,96366.06
2022-09-16T01:14:49.797Z,96350.47
2022-09-16T01:17:40.520Z,96344.94
2022-09-16T01:20:28.691Z,96328.25
2022-09-16T01:22:55.167Z,96337.25
2022-09-16T01:25:39.164Z,96337.31
2022-09-16T01:28:11.025Z,96329.03
2022-09-16T01:30:57.942Z,96332.78
2022-09-16T01:33:46.161Z,96322.28
2022-09-16T01:36:36.943Z,96348.75
2022-09-16T01:39:15.664Z,96330.63
2022-09-16T01:41:50.911Z,96328.44
2022-09-16T01:44:29.388Z,96312.09
2022-09-16T01:47:29.678Z,96333.66
2022-09-16T01:50:11.200Z,96350.91
2022-09-16T01:52:46.448Z,96326.97
2022-09-16T01:55:18.738Z,96340.91
2022-09-16T01:57:56.188Z,96321.56
2022-09-16T02:00:22.802Z,96336.91
2022-09-16T02:02:50.857Z,96316.25
2022-09-16T02:05:24.115Z,96350.34
2022-09-16T02:07:52.926Z,96324.81
2022-09-16T02:10:30.523Z,96325.91
2022-09-16T02:13:00.196Z,96324.00
2022-09-16T02:15:26.898Z,96334.31
2022-09-16T02:17:59.954Z,96329.16
2022-09-16T02:20:27.633Z,96337.22
2022-09-16T02:23:01.049Z,96356.63
2022-09-16T02:25:28.092Z,96340.63
2022-09-16T02:27:54.733Z,96349.75
2022-09-16T02:30:21.965Z,96339.13
2022-09-16T02:33:00.393Z,96335.78
2022-09-16T02:35:27.352Z,96340.28
2022-09-16T02:38:07.025Z,96321.84
2022-09-16T02:40:47.709Z,96335.66
2022-09-16T02:43:14.326Z,96316.47
2022-09-16T02:45:51.261Z,96317.47
2022-09-16T02:48:38.057Z,96321.91
2022-09-16T02:51:27.897Z,96330.50
2022-09-16T02:54:10.398Z,96325.56
2022-09-16T02:56:37.998Z,96347.16
2022-09-16T02:59:05.907Z,96354.19
2022-09-16T03:01:35.726Z,96321.34
2022-09-16T03:04:03.088Z,96311.31
2022-09-16T03:06:29.823Z,96354.97
2022-09-16T03:08:58.501Z,96335.31
2022-09-16T03:11:31.437Z,96327.69
2022-09-16T03:14:35.457Z,96331.31
2022-09-16T03:17:37.550Z,96298.28
2022-09-16T03:20:25.096Z,96292.25
2022-09-16T03:23:48.764Z,96297.00
2022-09-16T03:26:46.251Z,96318.75
2022-09-16T03:29:18.381Z,96324.44
2022-09-16T03:31:47.759Z,96291.75
2022-09-16T03:34:21.452Z,96319.38
2022-09-16T03:36:51.477Z,96309.22
2022-09-16T03:39:18.036Z,96298.75
2022-09-16T03:41:44.872Z,96297.50
2022-09-16T03:44:11.531Z,96298.28
2022-09-16T03:46:38.253Z,96314.97
2022-09-16T03:49:05.020Z,96311.19
2022-09-16T03:51:31.682Z,96297.84
2022-09-16T03:53:58.289Z,96300.84
2022-09-16T03:56:25.096Z,96312.78
2022-09-16T03:58:51.808Z,96309.28
2022-09-16T04:01:18.467Z,96307.69
2022-09-16T04:03:45.162Z,96296.88
2022-09-16T04:06:11.788Z,96339.44
2022-09-16T04:08:38.553Z,96312.13
2022-09-16T04:11:05.401Z,96312.91
2022-09-16T04:13:32.876Z,96313.25
2022-09-16T04:16:00.255Z,96339.28
2022-09-16T04:18:27.236Z,96323.53
2022-09-16T04:20:58.279Z,96311.81
2022-09-16T04:23:26.280Z,96339.44
2022-09-16T04:26:02.497Z,96325.31
2022-09-16T04:28:29.693Z,96307.50
2022-09-16T04:31:00.158Z,96307.06
2022-09-16T04:33:28.805Z,96324.38
2022-09-16T04:36:20.393Z,96338.50
2022-09-16T04:38:47.862Z,96317.84
2022-09-16T04:41:18.948Z,96333.88
2022-09-16T04:43:46.176Z,96318.00
2022-09-16T04:46:12.993Z,96332.63
2022-09-16T04:48:39.795Z,96330.25
2022-09-16T04:51:08.755Z,96324.69
2022-09-16T04:53:35.923Z,96335.81
2022-09-16T04:56:09.070Z,96333.28
2022-09-16T04:58:36.275Z,96330.25
2022-09-16T05:01:08.972Z,96328.38
2022-09-16T05:03:35.928Z,96321.38
2022-09-16T05:06:18.359Z,96338.06
2022-09-16T05:08:47.095Z,96329.47
2022-09-16T05:11:17.153Z,96332.34
2022-09-16T05:13:44.107Z,96335.03
2022-09-16T05:16:15.396Z,96334.41
2022-09-16T05:18:42.873Z,96337.13
2022-09-16T05:21:11.580Z,96324.88
2022-09-16T05:23:39.811Z,96348.09
2022-09-16T05:26:12.465Z,96328.38
2022-09-16T05:28:39.251Z,96337.75
2022-09-16T05:31:14.090Z,96343.47
2022-09-16T05:34:00.276Z,96334.72
2022-09-16T05:36:28.182Z,96330.91
2022-09-16T05:39:20.880Z,96335.84
2022-09-16T05:41:41.542Z,96348.09
2022-09-16T05:44:08.494Z,96315.53
2022-09-16T05:46:35.150Z,96323.66
2022-09-16T05:49:01.992Z,96337.28
2022-09-16T05:51:28.603Z,96320.28
2022-09-16T05:53:55.342Z,96305.22
2022-09-16T05:56:25.586Z,96320.31
2022-09-16T05:58:53.127Z,96314.09
2022-09-16T06:01:24.594Z,96336.34
2022-09-16T06:03:51.583Z,96348.88
2022-09-16T06:06:47.641Z,96308.47
2022-09-16T06:09:16.491Z,96309.75
2022-09-16T06:11:44.722Z,96307.50
2022-09-16T06:14:11.446Z,96305.41
2022-09-16T06:16:38.060Z,96314.28
2022-09-16T06:19:06.537Z,96314.88
2022-09-16T06:21:33.240Z,96299.22
2022-09-16T06:23:59.997Z,96278.84
2022-09-16T06:26:27.091Z,96323.06
2022-09-16T06:28:53.952Z,96326.72
2022-09-16T06:31:22.696Z,96341.72
2022-09-16T06:33:49.949Z,96307.34
2022-09-16T06:36:19.054Z,96310.97
2022-09-16T06:38:46.059Z,96315.44
2022-09-16T06:41:13.163Z,96352.75
2022-09-16T06:43:39.932Z,96323.16
2022-09-16T06:46:08.344Z,96290.94
2022-09-16T06:48:36.326Z,96330.06
2022-09-16T06:51:05.826Z,96322.41
2022-09-16T06:53:32.699Z,96312.88
2022-09-16T06:56:04.324Z,96342.06
2022-09-16T06:58:36.022Z,96332.53
2022-09-16T07:01:07.041Z,96313.22
2022-09-16T07:03:34.196Z,96346.75
2022-09-16T07:06:01.413Z,96307.13
2022-09-16T07:08:31.768Z,96306.66
2022-09-16T07:11:03.742Z,96325.50
2022-09-16T07:13:30.537Z,96321.91
2022-09-16T07:16:19.846Z,96305.66
2022-09-16T07:18:46.629Z,96312.94
2022-09-16T07:21:14.802Z,96309.44
2022-09-16T07:23:41.876Z,96328.94
2022-09-16T07:26:19.746Z,96333.66
2022-09-16T07:28:48.942Z,96347.06
2022-09-16T07:31:17.753Z,96305.25
2022-09-16T07:33:46.187Z,96314.09
2022-09-16T07:36:14.471Z,96336.31
2022-09-16T07:38:41.120Z,96346.09
2022-09-16T07:41:12.846Z,96343.25
2022-09-16T07:43:40.175Z,96317.09
2022-09-16T07:46:06.956Z,96352.16
2022-09-16T07:48:35.119Z,96349.75
2022-09-16T07:51:07.461Z,96335.78
2022-09-16T07:53:34.195Z,96348.56
2022-09-16T07:56:10.950Z,96336.69
2022-09-16T07:58:37.678Z,96327.06
2022-09-16T08:01:05.271Z,96364.03
2022-09-16T08:03:38.841Z,96340.44
2022-09-16T08:06:07.299Z,96355.28
2022-09-16T08:08:34.107Z,96368.88
2022-09-16T08:11:01.094Z,96359.41
2022-09-16T08:13:28.858Z,96351.59
2022-09-16T08:15:55.880Z,96374.50
2022-09-16T08:18:23.887Z,96350.94
2022-09-16T08:20:50.894Z,96344.13
2022-09-16T08:23:17.851Z,96366.09
2022-09-16T08:25:44.511Z,96375.16
2022-09-16T08:28:15.146Z,96344.09
2022-09-16T08:30:42.355Z,96344.34
2022-09-16T08:33:09.084Z,96331.72
2022-09-16T08:35:35.990Z,96328.81
2022-09-16T08:38:02.647Z,96342.75
2022-09-16T08:40:31.061Z,96341.91
2022-09-16T08:43:18.862Z,96346.78
2022-09-16T08:45:55.336Z,96332.91
2022-09-16T08:48:31.138Z,96354.59
2022-09-16T08:50:58.308Z,96365.69
2022-09-16T08:53:38.922Z,96368.84
2022-09-16T08:56:12.480Z,96368.22
2022-09-16T08:58:44.574Z,96333.06
2022-09-16T09:01:33.075Z,96366.50
2022-09-16T09:03:59.908Z,96351.53
2022-09-16T09:06:54.378Z,96384.19
2022-09-16T09:09:33.107Z,96354.59
2022-09-16T09:12:25.833Z,96378.50
2022-09-16T09:15:07.312Z,96359.41
2022-09-16T09:17:47.627Z,96362.75
2022-09-16T09:20:26.966Z,96342.41
2022-09-16T09:22:58.799Z,96389.53
2022-09-16T09:25:34.366Z,96368.91
2022-09-16T09:28:00.919Z,96349.94
2022-09-16T09:30:27.981Z,96356.56
2022-09-16T09:33:41.412Z,96364.69
2022-09-16T09:36:12.169Z,96331.81
2022-09-16T09:38:46.011Z,96319.69
2022-09-16T09:41:15.844Z,96345.00
2022-09-16T09:43:54.048Z,96331.38
2022-09-16T09:46:23.621Z,96327.75
2022-09-16T09:49:05.567Z,96348.56
2022-09-16T09:51:32.198Z,96329.88
2022-09-16T09:54:10.157Z,96338.91
2022-09-16T09:56:40.198Z,96337.38
2022-09-16T09:59:33.147Z,96356.56
2022-09-16T10:01:59.911Z,96350.22
2022-09-16T10:04:26.631Z,96333.69
2022-09-16T10:06:54.400Z,96327.19
2022-09-16T10:09:21.094Z,96329.56
2022-09-16T10:11:50.051Z,96340.41
2022-09-16T10:14:30.968Z,96323.63
2022-09-16T10:17:02.058Z,96332.25
2022-09-16T10:19:28.782Z,96325.34
2022-09-16T10:21:57.337Z,96322.63
2022-09-16T10:24:29.993Z,96329.19
2022-09-16T10:26:57.380Z,96317.69
2022-09-16T10:29:24.012Z,96324.94
2022-09-16T10:31:50.838Z,96317.50
2022-09-16T10:34:23.984Z,96328.47
2022-09-16T10:37:11.805Z,96319.53
2022-09-16T10:39:39.541Z,96357.78
2022-09-16T10:42:20.655Z,96328.66
2022-09-16T10:44:47.370Z,96328.97
2022-09-16T10:47:20.475Z,96335.53
2022-09-16T10:49:55.360Z,96329.03
2022-09-16T10:52:26.149Z,96347.66
2022-09-16T10:54:54.613Z,96347.34
2022-09-16T10:57:31.750Z,96313.38
2022-09-16T11:00:01.164Z,96349.06
2022-09-16T11:02:52.440Z,96334.41
2022-09-16T11:05:26.103Z,96310.78
2022-09-16T11:08:17.694Z,96314.72
2022-09-16T11:10:48.381Z,96317.69
2022-09-16T11:13:23.477Z,96326.53
2022-09-16T11:16:02.032Z,96332.16
2022-09-16T11:18:52.874Z,96334.59
2022-09-16T11:21:53.081Z,96322.19
2022-09-16T11:24:38.573Z,96329.47
2022-09-16T11:27:15.243Z,96335.94
2022-09-16T11:29:50.274Z,96318.50
2022-09-16T11:32:23.091Z,96320.59
2022-09-16T11:35:12.091Z,96329.59
2022-09-16T11:37:59.645Z,96319.41
2022-09-16T11:40:57.512Z,96340.34
2022-09-16T11:43:36.176Z,96335.84
2022-09-16T11:46:21.289Z,96338.66
2022-09-16T11:49:05.676Z,96336.56
2022-09-16T11:51:50.925Z,96347.53
2022-09-16T11:54:35.926Z,96319.34
2022-09-16T11:57:04.844Z,96333.03
2022-09-16T11:59:54.896Z,96359.34
2022-09-16T12:02:58.782Z,96340.31
2022-09-16T12:05:27.658Z,96336.22
2022-09-16T12:08:04.841Z,96341.31
2022-09-16T12:10:47.279Z,96317.38
2022-09-16T12:13:22.995Z,96321.66
2022-09-16T12:15:52.865Z,96321.34
2022-09-16T12:18:26.274Z,96343.75
2022-09-16T12:21:15.299Z,96323.19
2022-09-16T12:24:04.174Z,96315.97
2022-09-16T12:26:34.849Z,96328.28
2022-09-16T12:29:22.600Z,96308.16
2022-09-16T12:31:52.446Z,96351.13
2022-09-16T12:35:03.866Z,96333.31
2022-09-16T12:37:49.417Z,96323.19
2022-09-16T12:40:26.878Z,96311.19
2022-09-16T12:43:29.076Z,96327.03
2022-09-16T12:46:21.507Z,96321.13
2022-09-16T12:49:14.737Z,96319.09
2022-09-16T12:51:48.229Z,96322.88
2022-09-16T12:54:25.452Z,96302.19
2022-09-16T12:57:21.526Z,96312.34
2022-09-16T12:59:57.257Z,96306.78
2022-09-16T13:02:27.311Z,96300.69
2022-09-16T13:04:56.087Z,96326.53
2022-09-16T13:07:32.441Z,96335.00
2022-09-16T13:10:01.423Z,96298.69
2022-09-16T13:12:45.022Z,96327.22
2022-09-16T13:15:29.160Z,96330.13
2022-09-16T13:17:56.159Z,96338.94
2022-09-16T13:20:24.121Z,96337.75
2022-09-16T13:23:02.842Z,96310.53
2022-09-16T13:25:29.841Z,96315.72
2022-09-16T13:28:04.482Z,96307.97
2022-09-16T13:30:37.688Z,96332.97
2022-09-16T13:33:10.122Z,96298.34
2022-09-16T13:35:43.446Z,96309.63
2022-09-16T13:38:19.131Z,96308.44
2022-09-16T13:40:57.031Z,96331.41
2022-09-16T13:43:37.959Z,96333.72
2022-09-16T13:46:07.042Z,96325.06
2022-09-16T13:48:40.362Z,96308.25
2022-09-16T13:51:09.548Z,96324.16
2022-09-16T13:53:43.686Z,96322.06
2022-09-16T13:56:13.323Z,96329.56
2022-09-16T13:59:08.577Z,96313.16
2022-09-16T14:01:58.419Z,96296.28
2022-09-16T14:04:57.133Z,96312.94
2022-09-16T14:07:23.793Z,96297.25
2022-09-16T14:10:00.791Z,96299.88
2022-09-16T14:12:43.550Z,96290.13
2022-09-16T14:15:10.222Z,96288.31
2022-09-16T14:17:51.179Z,96313.66
2022-09-16T14:20:20.260Z,96290.88
2022-09-16T14:22:46.907Z,96281.75
2022-09-16T14:25:30.040Z,96252.03
2022-09-16T14:28:17.941Z,96276.06
2022-09-16T14:30:49.101Z,96287.75
2022-09-16T14:33:15.841Z,96304.94
2022-09-16T14:35:44.733Z,96323.00
2022-09-16T14:38:34.285Z,96331.19
2022-09-16T14:40:59.167Z,96314.13
2022-09-16T14:43:25.840Z,96283.75
2022-09-16T14:45:54.675Z,96321.59
2022-09-16T14:48:30.402Z,96301.91
2022-09-16T14:50:57.016Z,96322.19
2022-09-16T14:53:35.823Z,96323.41
2022-09-16T14:56:04.751Z,96290.44
2022-09-16T14:58:32.269Z,96296.97
2022-09-16T15:01:08.863Z,96308.03
2022-09-16T15:03:47.264Z,96294.44
2022-09-16T15:06:18.909Z,96296.03
2022-09-16T15:09:14.263Z,96299.88
2022-09-16T15:12:07.276Z,96294.50
2022-09-16T15:14:36.872Z,96296.22
2022-09-16T15:17:03.573Z,96270.25
2022-09-16T15:19:35.294Z,96309.81
2022-09-16T15:22:03.911Z,96320.72
2022-09-16T15:24:32.426Z,96281.53
2022-09-16T15:26:59.196Z,96257.94
2022-09-16T15:29:27.075Z,96266.41
2022-09-16T15:31:53.735Z,96261.84
2022-09-16T15:34:22.144Z,96262.22
2022-09-16T15:36:52.250Z,96308.91
2022-09-16T15:39:33.046Z,96291.34
2022-09-16T15:42:20.208Z,96275.72
2022-09-16T15:44:57.564Z,96289.09
2022-09-16T15:47:25.901Z,96306.13
2022-09-16T15:50:06.030Z,96257.47
2022-09-16T15:52:34.058Z,96291.53
2022-09-16T15:55:02.883Z,96278.63
2022-09-16T15:57:35.733Z,96264.44
2022-09-16T16:00:04.116Z,96276.06
2022-09-16T16:02:34.966Z,96297.06
2022-09-16T16:05:06.755Z,96297.22
2022-09-16T16:07:47.990Z,96302.38
2022-09-16T16:10:19.655Z,96306.00
2022-09-16T16:12:47.187Z,96267.69
2022-09-16T16:15:18.517Z,96311.97
2022-09-16T16:17:45.552Z,96282.56
2022-09-16T16:20:12.475Z,96306.97
2022-09-16T16:22:39.627Z,96318.28
2022-09-16T16:25:07.077Z,96313.19
2022-09-16T16:27:33.919Z,96306.38
2022-09-16T16:30:00.648Z,96310.84
2022-09-16T16:32:29.328Z,96297.31
2022-09-16T16:34:58.765Z,96326.28
2022-09-16T16:37:45.473Z,96338.34
2022-09-16T16:40:12.659Z,96308.28
2022-09-16T16:42:39.359Z,96330.22
2022-09-16T16:45:06.793Z,96326.72
2022-09-16T16:47:33.458Z,96321.19
2022-09-16T16:50:00.679Z,96346.50
2022-09-16T16:52:27.649Z,96326.91
2022-09-16T16:54:54.268Z,96311.34
2022-09-16T16:57:20.880Z,96323.13
2022-09-16T16:59:47.571Z,96328.03
2022-09-16T17:02:14.177Z,96343.78
2022-09-16T17:04:40.726Z,96341.59
2022-09-16T17:09:54.183Z,96324.59
2022-09-16T17:12:21.141Z,96327.44
2022-09-16T17:14:47.728Z,96342.06
2022-09-16T17:17:14.330Z,96313.66
2022-09-16T17:19:40.944Z,96349.53
2022-09-16T17:22:07.614Z,96344.91
2022-09-16T17:24:34.113Z,96342.19
2022-09-16T17:27:00.700Z,96324.22
2022-09-16T17:29:27.655Z,96329.47
2022-09-16T17:31:54.275Z,96329.13
2022-09-16T17:34:20.812Z,96315.97
2022-09-16T17:36:47.486Z,96326.75
2022-09-16T17:39:16.279Z,96337.41
2022-09-16T17:41:43.183Z,96348.03
2022-09-16T17:44:10.258Z,96333.59
2022-09-16T17:46:36.916Z,96364.06
2022-09-16T17:49:05.838Z,96350.75
2022-09-16T17:51:33.011Z,96325.16
2022-09-16T17:53:59.744Z,96329.94
2022-09-16T17:56:26.336Z,96339.94
2022-09-16T17:58:53.375Z,96334.53
2022-09-16T18:01:21.428Z,96329.44
2022-09-16T18:03:49.324Z,96322.63
2022-09-16T18:06:19.632Z,96329.94
2022-09-16T18:08:46.318Z,96348.34
2022-09-16T18:11:13.636Z,96368.63
2022-09-16T18:13:40.698Z,96352.22
2022-09-16T18:16:09.413Z,96333.47
2022-09-16T18:18:36.636Z,96360.81
2022-09-16T18:21:04.376Z,96355.22
2022-09-16T18:23:31.885Z,96353.44
2022-09-16T18:26:05.776Z,96351.81
2022-09-16T18:28:51.703Z,96373.53
2022-09-16T18:31:22.692Z,96369.53
2022-09-16T18:33:53.276Z,96357.00
2022-09-16T18:36:19.840Z,96376.81
2022-09-16T18:38:46.388Z,96375.56
2022-09-16T18:41:17.674Z,96370.16
2022-09-16T18:43:45.103Z,96369.88
2022-09-16T18:46:21.838Z,96373.69
2022-09-16T18:48:51.310Z,96379.59
2022-09-16T18:51:33.759Z,96379.13
2022-09-16T18:54:02.871Z,96367.25
2022-09-16T18:56:32.288Z,96371.53
2022-09-16T18:59:22.128Z,96366.28
2022-09-16T19:01:51.213Z,96373.88
2022-09-16T19:04:20.276Z,96376.19
2022-09-16T19:06:51.680Z,96379.50
2022-09-16T19:09:19.297Z,96375.19
2022-09-16T19:11:45.919Z,96384.22
2022-09-16T19:14:12.686Z,96383.22
2022-09-16T19:16:40.788Z,96357.50
2022-09-16T19:19:08.102Z,96369.53
2022-09-16T19:21:34.686Z,96367.47
2022-09-16T19:24:02.949Z,96386.00
2022-09-16T19:26:31.242Z,96377.28
2022-09-16T19:28:58.243Z,96378.66
2022-09-16T19:31:24.789Z,96364.41
2022-09-16T19:33:51.408Z,96372.41
2022-09-16T19:36:22.719Z,96368.38
2022-09-16T19:38:49.762Z,96381.78
2022-09-16T19:41:16.900Z,96355.09
2022-09-16T19:43:43.478Z,96354.97
2022-09-16T19:46:11.720Z,96370.84
2022-09-16T19:48:39.720Z,96379.41
2022-09-16T19:51:07.764Z,96373.22
2022-09-16T19:53:35.054Z,96358.72
2022-09-16T19:56:05.399Z,96351.25
2022-09-16T19:58:32.689Z,96385.66
2022-09-16T20:01:04.240Z,96365.38
2022-09-16T20:03:32.081Z,96406.47
2022-09-16T20:06:01.495Z,96398.78
2022-09-16T20:08:28.106Z,96392.19
2022-09-16T20:10:54.750Z,96382.59
2022-09-16T20:13:21.272Z,96388.16
2022-09-16T20:15:48.205Z,96427.75
2022-09-16T20:18:14.866Z,96399.69
2022-09-16T20:20:41.416Z,96392.75
2022-09-16T20:23:08.075Z,96363.16
2022-09-16T20:25:34.663Z,96343.06
2022-09-16T20:28:01.432Z,96352.13
2022-09-16T20:30:28.669Z,96365.75
2022-09-16T20:32:55.424Z,96330.19
2022-09-16T20:35:21.997Z,96329.41
2022-09-16T20:37:48.542Z,96334.94
2022-09-16T20:40:15.264Z,96368.53
2022-09-16T20:42:41.876Z,96343.03
2022-09-16T20:45:08.979Z,96351.03
2022-09-16T20:47:35.660Z,96384.00
2022-09-16T20:50:02.256Z,96350.91
2022-09-16T20:52:28.804Z,96353.38
2022-09-16T20:54:55.464Z,96346.59
2022-09-16T20:57:22.079Z,96353.00
2022-09-16T20:59:48.757Z,96361.88
2022-09-16T21:02:15.403Z,96365.97
2022-09-16T21:04:42.403Z,96348.34
2022-09-16T21:07:09.294Z,96350.88
2022-09-16T21:09:35.921Z,96359.22
2022-09-16T21:12:02.633Z,96351.28
2022-09-16T21:14:29.213Z,96378.38
2022-09-16T21:16:55.832Z,96366.03
2022-09-16T21:19:22.633Z,96366.22
2022-09-16T21:21:49.682Z,96368.72
2022-09-16T21:24:17.149Z,96374.59
2022-09-16T21:26:43.945Z,96357.38
2022-09-16T21:29:15.540Z,96373.72
2022-09-16T21:31:42.584Z,96378.78
2022-09-16T21:34:19.729Z,96370.53
2022-09-16T21:36:47.996Z,96354.50
2022-09-16T21:39:15.046Z,96372.84
2022-09-16T21:41:42.293Z,96377.22
2022-09-16T21:44:09.020Z,96385.59
2022-09-16T21:46:37.535Z,96397.78
2022-09-16T21:49:04.427Z,96380.19
2022-09-16T21:51:32.738Z,96373.84
2022-09-16T21:53:59.419Z,96387.19
2022-09-16T21:56:26.106Z,96383.72
2022-09-16T21:58:53.737Z,96387.19
2022-09-16T22:01:24.883Z,96412.09
2022-09-16T22:03:59.686Z,96412.19
2022-09-16T22:06:26.426Z,96412.19
2022-09-16T22:08:53.874Z,96416.06
2022-09-16T22:11:21.860Z,96390.94
2022-09-16T22:13:48.670Z,96417.06
2022-09-16T22:16:19.185Z,96418.06
2022-09-16T22:18:46.126Z,96395.41
2022-09-16T22:21:13.880Z,96376.88
2022-09-16T22:23:41.199Z,96391.13
2022-09-16T22:26:09.626Z,96400.97
2022-09-16T22:28:36.299Z,96378.84
2022-09-16T22:31:07.768Z,96396.41
2022-09-16T22:33:35.246Z,96414.63
2022-09-16T22:36:03.841Z,96405.09
2022-09-16T22:38:30.806Z,96393.72
2022-09-16T22:41:03.865Z,96407.78
2022-09-16T22:43:40.564Z,96390.66
2022-09-16T22:46:08.716Z,96404.19
2022-09-16T22:48:35.363Z,96374.19
2022-09-16T22:51:02.302Z,96396.81
2022-09-16T22:53:29.108Z,96388.63
2022-09-16T22:55:57.389Z,96413.78
2022-09-16T22:58:24.633Z,96414.06
2022-09-16T23:00:52.013Z,96402.00
2022-09-16T23:03:19.068Z,96394.72
2022-09-16T23:05:56.290Z,96399.53
2022-09-16T23:08:23.480Z,96363.84
2022-09-16T23:10:50.464Z,96395.34
2022-09-16T23:13:17.621Z,96408.34
2022-09-16T23:15:44.363Z,96409.91
2022-09-16T23:18:11.382Z,96385.91
2022-09-16T23:20:37.937Z,96381.50
2022-09-16T23:23:05.391Z,96382.81
2022-09-16T23:25:32.098Z,96387.22
2022-09-16T23:27:58.685Z,96392.38
2022-09-16T23:30:25.347Z,96398.16
2022-09-16T23:32:51.966Z,96399.06
2022-09-16T23:35:18.844Z,96369.16
2022-09-16T23:37:45.461Z,96376.34
2022-09-16T23:40:12.137Z,96377.53
2022-09-16T23:42:38.876Z,96392.09
2022-09-16T23:45:05.967Z,96373.28
2022-09-16T23:47:32.576Z,96425.06
2022-09-16T23:49:59.137Z,96403.34
2022-09-16T23:52:25.711Z,96393.16
2022-09-16T23:54:52.336Z,96368.75
2022-09-16T23:57:18.861Z,96395.06
2022-09-16T23:59:45.541Z,96369.34
